Time;durP1;ratioP1;P1;durP2;ratioP2;P2;SDS_P1;SDS_P2;PMS_P1;PMS_P2;Temp;Humidity;BMP_temperature;BMP_pressure;BME280_temperature;BME280_humidity;BME280_pressure;Samples;Min_cycle;Max_cycle;Signal;HPM_P1;HPM_P2
2024/01/07 00:02:21;;;;;;;9.63;5.18;;;;;;;;;;5022881;28;20029;-77
2024/01/07 00:04:47;;;;;;;10.13;4.80;;;;;;;;;;5024398;28;20408;-79
2024/01/07 00:07:13;;;;;;;7.72;4.03;;;;;;;;;;5019096;28;20360;-78
2024/01/07 00:09:38;;;;;;;6.47;4.35;;;;;;;;;;5054620;28;20026;-79
2024/01/07 00:12:05;;;;;;;11.02;4.25;;;;;;;;;;5023848;28;20653;-78
2024/01/07 00:14:31;;;;;;;14.13;4.45;;;;;;;;;;5016343;28;20076;-78
2024/01/07 00:16:57;;;;;;;8.32;3.75;;;;;;;;;;5016533;28;20033;-79
2024/01/07 00:19:23;;;;;;;8.90;3.53;;;;;;;;;;5016554;28;20103;-78
2024/01/07 00:21:49;;;;;;;10.80;5.63;;;;;;;;;;5028447;28;20408;-79
2024/01/07 00:24:15;;;;;;;14.70;4.72;;;;;;;;;;5023546;28;20037;-79
2024/01/07 00:26:41;;;;;;;8.48;4.65;;;;;;;;;;5022134;28;20122;-80
2024/01/07 00:29:07;;;;;;;9.57;5.47;;;;;;;;;;5058424;28;20444;-80
2024/01/07 00:31:33;;;;;;;8.15;4.30;;;;;;;;;;5026551;28;20025;-78
2024/01/07 00:34:01;;;;;;;6.72;3.53;;;;;;;;;;5013123;28;20104;-78
2024/01/07 00:36:27;;;;;;;9.23;4.22;;;;;;;;;;5019182;28;20051;-79
2024/01/07 00:38:53;;;;;;;6.15;4.15;;;;;;;;;;5023563;28;20480;-79
2024/01/07 00:41:19;;;;;;;10.05;4.45;;;;;;;;;;5026972;28;20448;-78
2024/01/07 00:43:45;;;;;;;8.30;5.57;;;;;;;;;;5026488;28;20535;-78
2024/01/07 00:46:13;;;;;;;8.32;4.60;;;;;;;;;;5024186;28;20034;-79
2024/01/07 00:48:38;;;;;;;11.27;4.50;;;;;;;;;;5025462;28;20041;-80
2024/01/07 00:51:05;;;;;;;8.15;4.55;;;;;;;;;;5021790;28;20025;-79
2024/01/07 00:53:31;;;;;;;10.70;4.25;;;;;;;;;;5023365;28;20088;-79
2024/01/07 00:55:57;;;;;;;6.90;3.80;;;;;;;;;;5025846;28;20057;-79
2024/01/07 00:58:23;;;;;;;10.52;5.28;;;;;;;;;;5041810;28;20029;-79
2024/01/07 01:00:49;;;;;;;17.67;7.43;;;;;;;;;;5024060;28;20025;-80
2024/01/07 01:03:15;;;;;;;13.50;6.32;;;;;;;;;;5026662;28;20029;-79
2024/01/07 01:05:41;;;;;;;20.80;7.45;;;;;;;;;;5023187;28;20388;-79
2024/01/07 01:08:07;;;;;;;13.45;5.65;;;;;;;;;;5052930;28;20175;-80
2024/01/07 01:10:33;;;;;;;11.40;5.78;;;;;;;;;;5025978;28;20025;-81
2024/01/07 01:12:59;;;;;;;11.88;5.68;;;;;;;;;;5016491;28;20026;-79
2024/01/07 01:15:25;;;;;;;9.50;4.88;;;;;;;;;;5021261;28;20057;-78
2024/01/07 01:17:51;;;;;;;8.48;4.93;;;;;;;;;;5022499;28;20113;-80
2024/01/07 01:20:17;;;;;;;10.52;5.47;;;;;;;;;;5028182;28;20017;-77
2024/01/07 01:22:43;;;;;;;9.63;4.95;;;;;;;;;;5021859;28;20387;-78
2024/01/07 01:25:10;;;;;;;10.07;5.82;;;;;;;;;;5022266;28;20100;-78
2024/01/07 01:27:36;;;;;;;10.68;5.32;;;;;;;;;;5024864;28;20488;-79
2024/01/07 01:30:02;;;;;;;9.60;5.68;;;;;;;;;;5026259;28;20037;-79
2024/01/07 01:32:27;;;;;;;10.07;5.25;;;;;;;;;;5022689;28;20040;-78
2024/01/07 01:34:53;;;;;;;10.10;5.50;;;;;;;;;;5026745;28;20033;-78
2024/01/07 01:37:19;;;;;;;10.00;5.32;;;;;;;;;;5018524;28;20044;-78
2024/01/07 01:39:45;;;;;;;9.85;4.72;;;;;;;;;;5025887;28;20065;-78
2024/01/07 01:42:11;;;;;;;10.63;5.22;;;;;;;;;;5025322;28;20034;-79
2024/01/07 01:44:38;;;;;;;11.43;6.00;;;;;;;;;;5021393;28;20029;-79
2024/01/07 01:47:05;;;;;;;10.75;5.35;;;;;;;;;;5026857;28;20086;-79
2024/01/07 01:49:31;;;;;;;12.73;4.93;;;;;;;;;;5021238;28;20025;-78
2024/01/07 01:51:57;;;;;;;17.98;6.32;;;;;;;;;;5021653;28;20506;-79
2024/01/07 01:54:24;;;;;;;12.40;5.78;;;;;;;;;;5024894;28;20025;-80
2024/01/07 01:56:50;;;;;;;10.43;4.32;;;;;;;;;;5025283;28;20499;-81
2024/01/07 01:59:16;;;;;;;14.10;5.68;;;;;;;;;;5017653;28;20041;-78
2024/01/07 02:01:42;;;;;;;12.40;6.40;;;;;;;;;;5053118;28;20056;-79
2024/01/07 02:04:09;;;;;;;8.40;5.57;;;;;;;;;;5023154;28;20021;-78
2024/01/07 02:06:35;;;;;;;8.75;5.72;;;;;;;;;;5041503;28;20021;-80
2024/01/07 02:09:01;;;;;;;10.65;5.72;;;;;;;;;;5021540;28;20037;-80
2024/01/07 02:11:27;;;;;;;16.17;6.15;;;;;;;;;;5023847;28;20033;-79
2024/01/07 02:13:54;;;;;;;9.10;5.28;;;;;;;;;;5018839;28;20472;-78
2024/01/07 02:16:20;;;;;;;9.30;5.45;;;;;;;;;;5015193;28;20091;-81
2024/01/07 02:18:46;;;;;;;13.52;5.97;;;;;;;;;;5024473;28;20496;-80
2024/01/07 02:21:13;;;;;;;11.50;6.20;;;;;;;;;;5024952;28;20025;-77
2024/01/07 02:23:39;;;;;;;12.13;6.53;;;;;;;;;;5021382;28;20029;-80
2024/01/07 02:26:06;;;;;;;8.50;5.28;;;;;;;;;;5019102;28;20029;-78
2024/01/07 02:28:32;;;;;;;9.65;5.43;;;;;;;;;;5037484;28;20060;-79
2024/01/07 02:30:58;;;;;;;13.43;6.00;;;;;;;;;;5019875;28;20289;-80
2024/01/07 02:33:24;;;;;;;9.85;5.35;;;;;;;;;;5021698;28;20091;-80
2024/01/07 02:35:50;;;;;;;13.48;6.07;;;;;;;;;;5016315;28;20018;-79
2024/01/07 02:38:16;;;;;;;11.20;6.63;;;;;;;;;;5026579;28;20052;-80
2024/01/07 02:40:42;;;;;;;10.75;5.75;;;;;;;;;;5021614;28;20180;-79
2024/01/07 02:43:08;;;;;;;11.75;6.45;;;;;;;;;;5021172;28;20033;-77
2024/01/07 02:45:34;;;;;;;12.77;6.13;;;;;;;;;;5023964;28;20034;-81
2024/01/07 02:48:00;;;;;;;14.05;6.60;;;;;;;;;;5031183;28;20416;-78
2024/01/07 02:50:26;;;;;;;13.70;6.38;;;;;;;;;;5034862;28;20109;-80
2024/01/07 02:52:52;;;;;;;12.40;5.90;;;;;;;;;;5037534;28;20037;-79
2024/01/07 02:55:18;;;;;;;11.15;6.13;;;;;;;;;;5043559;28;20090;-77
2024/01/07 02:57:44;;;;;;;9.55;5.88;;;;;;;;;;5039910;28;20037;-79
2024/01/07 03:00:10;;;;;;;14.93;6.53;;;;;;;;;;5044934;28;20024;-78
2024/01/07 03:02:36;;;;;;;13.75;6.65;;;;;;;;;;5028773;28;20034;-82
2024/01/07 03:05:02;;;;;;;15.57;7.20;;;;;;;;;;5027905;28;20028;-79
2024/01/07 03:07:30;;;;;;;20.48;7.97;;;;;;;;;;5025542;28;20045;-79
2024/01/07 03:09:56;;;;;;;13.43;7.35;;;;;;;;;;5029717;28;20040;-79
2024/01/07 03:12:23;;;;;;;15.55;7.35;;;;;;;;;;5028682;28;20483;-78
2024/01/07 03:14:49;;;;;;;14.13;7.40;;;;;;;;;;5027557;28;20028;-79
2024/01/07 03:17:17;;;;;;;12.00;6.35;;;;;;;;;;5028473;28;20056;-80
2024/01/07 03:19:42;;;;;;;14.98;7.28;;;;;;;;;;5028918;28;20026;-79
2024/01/07 03:22:08;;;;;;;10.35;6.38;;;;;;;;;;5023061;28;20442;-80
2024/01/07 03:24:34;;;;;;;15.75;6.68;;;;;;;;;;5025511;28;20461;-79
2024/01/07 03:27:00;;;;;;;13.30;6.97;;;;;;;;;;5026229;28;20026;-80
2024/01/07 03:29:26;;;;;;;18.92;7.30;;;;;;;;;;5023848;28;20033;-81
2024/01/07 03:31:52;;;;;;;11.32;5.78;;;;;;;;;;5028705;28;20032;-80
2024/01/07 03:34:19;;;;;;;12.57;6.93;;;;;;;;;;5019216;28;20022;-79
2024/01/07 03:36:44;;;;;;;13.77;7.63;;;;;;;;;;5025847;28;20029;-79
2024/01/07 03:39:11;;;;;;;11.32;6.93;;;;;;;;;;5023135;28;20026;-79
2024/01/07 03:41:37;;;;;;;18.40;7.00;;;;;;;;;;5016069;28;20400;-78
2024/01/07 03:44:03;;;;;;;22.98;6.90;;;;;;;;;;5024935;28;20041;-79
2024/01/07 03:46:29;;;;;;;11.02;6.53;;;;;;;;;;5024778;28;20116;-78
2024/01/07 03:48:55;;;;;;;17.92;7.20;;;;;;;;;;5013669;28;20068;-79
2024/01/07 03:51:21;;;;;;;16.88;7.65;;;;;;;;;;5016157;28;20173;-81
2024/01/07 03:53:48;;;;;;;15.75;6.82;;;;;;;;;;5020418;28;20562;-79
2024/01/07 03:56:14;;;;;;;13.68;7.43;;;;;;;;;;5024829;28;20202;-80
2024/01/07 03:58:40;;;;;;;17.95;8.18;;;;;;;;;;5023186;28;20183;-80
2024/01/07 04:01:06;;;;;;;18.42;7.95;;;;;;;;;;5025650;28;20024;-81
2024/01/07 04:03:32;;;;;;;13.00;8.00;;;;;;;;;;5019816;28;20164;-79
2024/01/07 04:05:58;;;;;;;15.00;7.85;;;;;;;;;;5023304;28;20088;-79
2024/01/07 04:08:24;;;;;;;16.73;7.20;;;;;;;;;;5021818;28;20021;-80
2024/01/07 04:10:50;;;;;;;21.00;7.75;;;;;;;;;;5015566;28;20025;-78
2024/01/07 04:13:16;;;;;;;17.63;7.82;;;;;;;;;;5021963;28;20033;-80
2024/01/07 04:15:42;;;;;;;21.60;10.52;;;;;;;;;;5019097;28;20032;-80
2024/01/07 04:18:08;;;;;;;14.98;8.32;;;;;;;;;;5022144;28;20084;-79
2024/01/07 04:20:34;;;;;;;16.77;8.88;;;;;;;;;;5019808;28;20045;-80
2024/01/07 04:23:00;;;;;;;16.05;7.18;;;;;;;;;;5021628;28;20033;-79
2024/01/07 04:25:26;;;;;;;21.67;8.68;;;;;;;;;;5024374;28;20029;-79
2024/01/07 04:27:52;;;;;;;21.95;8.32;;;;;;;;;;5016456;28;20136;-79
2024/01/07 04:30:18;;;;;;;17.77;8.02;;;;;;;;;;5018060;28;20330;-79
2024/01/07 04:32:43;;;;;;;19.15;8.00;;;;;;;;;;5021242;28;20460;-79
2024/01/07 04:35:09;;;;;;;18.70;8.95;;;;;;;;;;5018975;28;20112;-79
2024/01/07 04:37:36;;;;;;;16.88;7.68;;;;;;;;;;5018922;28;21115;-79
2024/01/07 04:40:02;;;;;;;16.63;7.65;;;;;;;;;;5020825;28;20053;-78
2024/01/07 04:42:29;;;;;;;16.70;7.80;;;;;;;;;;5020702;28;20022;-78
2024/01/07 04:44:56;;;;;;;19.85;8.75;;;;;;;;;;5047433;28;20095;-80
2024/01/07 04:47:33;;;;;;;19.00;8.00;;;;;;;;;;5016779;28;20534;-80
2024/01/07 04:49:59;;;;;;;10.38;5.47;;;;;;;;;;5019517;28;20018;-80
2024/01/07 04:52:27;;;;;;;18.42;7.13;;;;;;;;;;5018784;28;20044;-79
2024/01/07 04:54:53;;;;;;;18.25;5.95;;;;;;;;;;5023436;28;20079;-79
2024/01/07 04:57:19;;;;;;;14.63;6.13;;;;;;;;;;5017585;28;20022;-79
2024/01/07 04:59:46;;;;;;;13.23;6.40;;;;;;;;;;5021242;28;20125;-79
2024/01/07 05:02:12;;;;;;;9.38;4.85;;;;;;;;;;5019373;28;20105;-80
2024/01/07 05:04:38;;;;;;;10.35;4.78;;;;;;;;;;5017229;28;20095;-79
2024/01/07 05:07:04;;;;;;;10.90;5.38;;;;;;;;;;5021195;28;20030;-79
2024/01/07 05:09:30;;;;;;;8.50;5.13;;;;;;;;;;5023350;28;20034;-79
2024/01/07 05:11:57;;;;;;;11.77;5.63;;;;;;;;;;5025727;28;20550;-79
2024/01/07 05:14:23;;;;;;;10.85;5.28;;;;;;;;;;5022607;28;20033;-80
2024/01/07 05:16:49;;;;;;;11.15;5.72;;;;;;;;;;5026074;28;20033;-79
2024/01/07 05:19:15;;;;;;;11.02;4.30;;;;;;;;;;5024758;28;20029;-80
2024/01/07 05:21:41;;;;;;;11.77;5.57;;;;;;;;;;5029116;28;20021;-81
2024/01/07 05:24:07;;;;;;;11.40;4.60;;;;;;;;;;5019867;28;20085;-78
2024/01/07 05:26:40;;;;;;;14.25;4.53;;;;;;;;;;5029224;28;20100;-79
2024/01/07 05:29:06;;;;;;;10.25;4.45;;;;;;;;;;5023597;28;20172;-79
2024/01/07 05:31:32;;;;;;;8.52;4.20;;;;;;;;;;5028254;28;20033;-80
2024/01/07 05:33:59;;;;;;;6.18;3.75;;;;;;;;;;5022197;28;20041;-79
2024/01/07 05:36:25;;;;;;;8.15;3.85;;;;;;;;;;5029581;28;20029;-79
2024/01/07 05:38:51;;;;;;;5.03;2.85;;;;;;;;;;5020951;28;20029;-79
2024/01/07 05:41:17;;;;;;;10.60;4.30;;;;;;;;;;5027170;28;20028;-79
2024/01/07 05:43:43;;;;;;;10.25;4.40;;;;;;;;;;5021248;28;20104;-78
2024/01/07 05:46:11;;;;;;;7.30;3.17;;;;;;;;;;5029687;28;20121;-79
2024/01/07 05:48:49;;;;;;;8.65;4.20;;;;;;;;;;5026284;28;20115;-78
2024/01/07 05:51:16;;;;;;;7.30;3.67;;;;;;;;;;5026113;28;20192;-80
2024/01/07 05:53:43;;;;;;;7.10;3.20;;;;;;;;;;5023319;28;20112;-81
2024/01/07 05:56:09;;;;;;;8.35;4.00;;;;;;;;;;5029820;28;20449;-79
2024/01/07 05:58:35;;;;;;;8.07;3.65;;;;;;;;;;5022806;28;20064;-79
2024/01/07 06:01:01;;;;;;;9.13;4.38;;;;;;;;;;5020735;28;20113;-80
2024/01/07 06:03:27;;;;;;;9.38;4.22;;;;;;;;;;5022063;28;20097;-80
2024/01/07 06:05:53;;;;;;;4.80;2.78;;;;;;;;;;5017728;28;20578;-78
2024/01/07 06:08:19;;;;;;;6.18;2.80;;;;;;;;;;5016907;28;20519;-78
2024/01/07 06:10:45;;;;;;;15.20;3.75;;;;;;;;;;5022568;28;20029;-79
2024/01/07 06:13:11;;;;;;;7.72;3.75;;;;;;;;;;5022779;28;20026;-79
2024/01/07 06:15:37;;;;;;;7.72;3.35;;;;;;;;;;5024778;28;20040;-79
2024/01/07 06:18:03;;;;;;;6.63;3.40;;;;;;;;;;5025335;28;20045;-79
2024/01/07 06:20:30;;;;;;;4.97;2.70;;;;;;;;;;5008718;28;20037;-78
2024/01/07 06:22:56;;;;;;;5.68;2.20;;;;;;;;;;5022509;28;20038;-79
2024/01/07 06:25:22;;;;;;;8.07;4.05;;;;;;;;;;5026375;28;20073;-78
2024/01/07 06:27:48;;;;;;;7.82;3.70;;;;;;;;;;5023484;28;20030;-80
2024/01/07 06:30:16;;;;;;;7.65;2.95;;;;;;;;;;5025949;28;20022;-78
2024/01/07 06:32:42;;;;;;;6.43;3.40;;;;;;;;;;5038439;28;20033;-78
2024/01/07 06:35:08;;;;;;;5.63;2.85;;;;;;;;;;5023620;28;20032;-80
2024/01/07 06:37:34;;;;;;;4.78;1.88;;;;;;;;;;5039057;28;20034;-79
2024/01/07 06:40:00;;;;;;;7.57;3.33;;;;;;;;;;5022421;28;20027;-78
2024/01/07 06:42:26;;;;;;;6.80;2.40;;;;;;;;;;5018891;28;20108;-78
2024/01/07 06:44:53;;;;;;;4.78;2.38;;;;;;;;;;5020937;28;20468;-78
2024/01/07 06:47:19;;;;;;;6.25;2.90;;;;;;;;;;5024501;28;20052;-78
2024/01/07 06:49:46;;;;;;;5.05;2.45;;;4.00;99.90;;;;;;5023667;28;20037;-79
2024/01/07 06:52:12;;;;;;;4.55;2.10;;;;;;;;;;5018278;28;21203;-80
2024/01/07 06:54:39;;;;;;;6.28;2.67;;;;;;;;;;5025038;28;20391;-78
2024/01/07 06:57:05;;;;;;;4.00;2.28;;;;;;;;;;5020672;28;20036;-80
2024/01/07 06:59:31;;;;;;;5.65;2.13;;;;;;;;;;5016567;28;20026;-81
2024/01/07 07:01:57;;;;;;;4.70;2.30;;;;;;;;;;5027914;28;20502;-80
2024/01/07 07:04:23;;;;;;;6.65;2.38;;;;;;;;;;5021995;28;20504;-80
2024/01/07 07:06:48;;;;;;;8.30;2.58;;;;;;;;;;5024565;28;20029;-80
2024/01/07 07:09:15;;;;;;;8.15;2.50;;;;;;;;;;5020876;28;20036;-80
2024/01/07 07:11:42;;;;;;;3.55;1.73;;;;;;;;;;5021308;28;20110;-81
2024/01/07 07:14:08;;;;;;;5.97;2.85;;;;;;;;;;5021246;28;20022;-81
2024/01/07 07:16:34;;;;;;;3.42;1.90;;;;;;;;;;5018666;28;20029;-81
2024/01/07 07:19:00;;;;;;;8.45;1.90;;;;;;;;;;5023630;28;20030;-80
2024/01/07 07:21:27;;;;;;;4.90;1.88;;;;;;;;;;5021332;28;20037;-79
2024/01/07 07:23:53;;;;;;;5.55;2.63;;;;;;;;;;5019497;28;20022;-79
2024/01/07 07:26:19;;;;;;;5.68;2.47;;;;;;;;;;5023921;28;20095;-79
2024/01/07 07:28:45;;;;;;;3.85;1.67;;;;;;;;;;5017255;28;20033;-80
2024/01/07 07:31:14;;;;;;;4.32;1.70;;;;;;;;;;5025539;28;20284;-80
2024/01/07 07:33:40;;;;;;;3.70;2.03;;;;;;;;;;5018651;28;20038;-79
2024/01/07 07:36:06;;;;;;;4.07;2.15;;;;;;;;;;5018608;28;20420;-79
2024/01/07 07:38:32;;;;;;;9.13;3.00;;;;;;;;;;5019638;28;20109;-79
2024/01/07 07:40:58;;;;;;;4.30;2.08;;;;;;;;;;5030050;28;20074;-81
2024/01/07 07:43:25;;;;;;;6.78;2.53;;;;;;;;;;5021729;28;20038;-80
2024/01/07 07:45:51;;;;;;;5.15;2.22;;;;;;;;;;5024590;28;20059;-80
2024/01/07 07:48:17;;;;;;;6.72;2.28;;;;;;;;;;5023820;28;20044;-80
2024/01/07 07:50:43;;;;;;;8.27;2.75;;;;;;;;;;5026447;28;20068;-81
2024/01/07 07:53:09;;;;;;;5.32;2.15;;;;;;;;;;5015824;28;20064;-79
2024/01/07 07:55:35;;;;;;;4.35;1.58;;;;;;;;;;5022242;28;20061;-79
2024/01/07 07:58:01;;;;;;;3.05;1.85;;;;;;;;;;5025793;28;20037;-80
2024/01/07 08:00:27;;;;;;;4.70;2.05;;;;;;;;;;5025634;28;20088;-79
2024/01/07 08:02:53;;;;;;;4.72;1.95;;;;;;;;;;5010918;28;20029;-77
2024/01/07 08:05:19;;;;;;;4.35;2.35;;;;;;;;;;5018105;28;20022;-79
2024/01/07 08:07:44;;;;;;;4.25;2.33;;;;;;;;;;5021326;28;20525;-80
2024/01/07 08:10:12;;;;;;;2.83;1.85;;;;;;;;;;5021882;28;20108;-81
2024/01/07 08:12:38;;;;;;;6.43;2.08;;;;;;;;;;5024597;28;20116;-78
2024/01/07 08:15:06;;;;;;;6.28;2.38;;;;;;;;;;5022634;28;20125;-78
2024/01/07 08:17:32;;;;;;;4.05;2.45;;;;;;;;;;5022075;28;20529;-79
2024/01/07 08:19:58;;;;;;;6.20;3.20;;;;;;;;;;5021562;28;20087;-79
2024/01/07 08:22:23;;;;;;;8.40;2.00;;;;;;;;;;5019119;28;20029;-78
2024/01/07 08:24:50;;;;;;;13.32;2.45;;;;;;;;;;5012667;28;20029;-78
2024/01/07 08:27:17;;;;;;;6.60;2.28;;;;;;;;;;5024367;28;20022;-80
2024/01/07 08:29:44;;;;;;;7.13;3.17;;;;;;;;;;5022488;28;20065;-78
2024/01/07 08:32:10;;;;;;;6.32;2.40;;;;;;;;;;5025843;28;20025;-78
2024/01/07 08:34:36;;;;;;;10.45;2.38;;;;;;;;;;5024868;28;20026;-80
2024/01/07 08:37:03;;;;;;;9.20;3.78;;;;;;;;;;5020040;28;20457;-77
2024/01/07 08:39:29;;;;;;;2.55;1.80;;;;;;;;;;5026032;28;20035;-79
2024/01/07 08:41:55;;;;;;;5.47;2.90;;;;;;;;;;5024507;28;20512;-78
2024/01/07 08:44:22;;;;;;;6.90;2.42;;;;;;;;;;5025872;28;20029;-77
2024/01/07 08:46:48;;;;;;;5.13;2.22;;;;;;;;;;5024482;28;20033;-77
2024/01/07 08:49:14;;;;;;;5.00;2.35;;;;;;;;;;5025316;28;20036;-79
2024/01/07 08:51:40;;;;;;;5.35;2.00;;;;;;;;;;5028678;28;20177;-78
2024/01/07 08:54:06;;;;;;;7.20;3.15;;;;;;;;;;5027078;28;20029;-79
2024/01/07 08:56:32;;;;;;;6.75;2.80;;;;;;;;;;5026785;28;20112;-79
2024/01/07 08:58:59;;;;;;;4.65;2.67;;;;;;;;;;5057525;28;20036;-81
2024/01/07 09:01:25;;;;;;;5.55;2.90;;;;;;;;;;5028215;28;22221;-79
2024/01/07 09:03:50;;;;;;;6.07;2.83;;;;;;;;;;5023774;28;20029;-77
2024/01/07 09:06:16;;;;;;;5.35;2.85;;;;;;;;;;5025748;28;20061;-81
2024/01/07 09:08:42;;;;;;;6.50;2.50;;;;;;;;;;5023185;28;20033;-78
2024/01/07 09:11:11;;;;;;;5.38;2.58;;;;;;;;;;5024734;28;20512;-79
2024/01/07 09:13:37;;;;;;;5.25;2.80;;;;;;;;;;5019723;28;20029;-81
2024/01/07 09:16:04;;;;;;;4.78;2.45;;;;;;;;;;5021486;28;20040;-80
2024/01/07 09:18:30;;;;;;;6.28;2.63;;;;;;;;;;5007961;28;20053;-80
2024/01/07 09:20:56;;;;;;;7.63;3.13;;;;;;;;;;5028367;28;20033;-80
2024/01/07 09:23:22;;;;;;;3.53;1.85;;;;;;;;;;5022210;28;20095;-78
2024/01/07 09:25:49;;;;;;;10.48;3.08;;;;;;;;;;5021494;28;20026;-80
2024/01/07 09:28:15;;;;;;;5.20;2.78;;;;;;;;;;5025790;28;20029;-78
2024/01/07 09:30:42;;;;;;;5.28;2.75;;;;;;;;;;5025789;28;20021;-77
2024/01/07 09:33:08;;;;;;;5.07;2.80;;;;;;;;;;5023441;28;20032;-79
2024/01/07 09:35:36;;;;;;;7.13;4.35;;;;;;;;;;5027782;28;20025;-79
2024/01/07 09:38:03;;;;;;;7.20;3.03;;;;;;;;;;5016683;28;20620;-79
2024/01/07 09:40:30;;;;;;;7.47;2.90;;;;;;;;;;5023626;28;20022;-80
2024/01/07 09:42:56;;;;;;;7.25;2.97;;;3.80;99.90;;;;;;5022134;28;20025;-78
2024/01/07 09:45:23;;;;;;;4.68;2.78;;;;;;;;;;5039022;28;20022;-80
2024/01/07 09:47:49;;;;;;;6.85;3.22;;;;;;;;;;5044427;28;20065;-79
2024/01/07 09:50:16;;;;;;;4.10;2.50;;;;;;;;;;5052045;28;20556;-76
2024/01/07 09:52:44;;;;;;;3.90;2.08;;;;;;;;;;5048469;28;20044;-78
2024/01/07 09:55:10;;;;;;;5.65;2.85;;;;;;;;;;5048135;28;20029;-77
2024/01/07 09:57:39;;;;;;;5.13;2.45;;;;;;;;;;5041901;28;20434;-77
2024/01/07 10:00:05;;;;;;;5.55;2.75;;;;;;;;;;5025873;28;20195;-81
2024/01/07 10:02:31;;;;;;;5.85;3.00;;;;;;;;;;5023993;28;20037;-82
2024/01/07 10:04:57;;;;;;;6.18;2.85;;;;;;;;;;5027751;28;20044;-81
2024/01/07 10:07:23;;;;;;;9.60;3.65;;;;;;;;;;5035575;28;20021;-79
2024/01/07 10:09:49;;;;;;;5.78;2.55;;;;;;;;;;5031420;28;20966;-78
2024/01/07 10:12:15;;;;;;;14.45;5.75;;;;;;;;;;5023131;28;20029;-80
2024/01/07 10:14:41;;;;;;;24.08;8.98;;;;;;;;;;5023313;28;20500;-78
2024/01/07 10:17:16;;;;;;;10.00;4.13;;;;;;;;;;5019639;28;20321;-81
2024/01/07 10:19:43;;;;;;;6.32;3.42;;;;;;;;;;5030212;28;20114;-79
2024/01/07 10:22:10;;;;;;;6.80;3.10;;;;;;;;;;5025206;28;20103;-79
2024/01/07 10:24:40;;;;;;;7.28;3.72;;;;;;;;;;5026142;28;20472;-78
2024/01/07 10:27:06;;;;;;;6.35;3.67;;;;;;;;;;5059725;28;20459;-79
2024/01/07 10:29:33;;;;;;;7.72;3.22;;;;;;;;;;5039609;28;20431;-79
2024/01/07 10:31:59;;;;;;;3.97;2.50;;;;;;;;;;5023832;28;20452;-79
2024/01/07 10:34:28;;;;;;;7.32;2.92;;;;;;;;;;5015974;28;20036;-78
2024/01/07 10:36:56;;;;;;;6.53;3.10;;;;;;;;;;5018999;28;20443;-79
2024/01/07 10:39:22;;;;;;;5.78;2.83;;;;;;;;;;5021474;28;20056;-79
2024/01/07 10:41:52;;;;;;;9.82;4.10;;;3.50;99.90;;;;;;5018731;28;20980;-81
2024/01/07 10:44:18;;;;;;;6.32;3.55;;;;;;;;;;5023359;28;20025;-78
2024/01/07 10:46:45;;;;;;;9.18;3.58;;;;;;;;;;5027698;28;20514;-79
2024/01/07 10:49:17;;;;;;;7.53;3.85;;;;;;;;;;5021682;28;20049;-80
2024/01/07 10:51:43;;;;;;;8.57;4.10;;;;;;;;;;5026505;28;20033;-79
2024/01/07 10:54:11;;;;;;;9.10;3.78;;;;;;;;;;5015368;28;20040;-78
2024/01/07 10:56:46;;;;;;;8.63;4.10;;;;;;;;;;5020801;28;20309;-80
2024/01/07 10:59:12;;;;;;;7.90;3.10;;;;;;;;;;5018113;28;20033;-79
2024/01/07 11:01:39;;;;;;;5.70;4.13;;;;;;;;;;5025096;28;20024;-78
2024/01/07 11:04:08;;;;;;;9.75;4.85;;;;;;;;;;5017140;28;20254;-80
2024/01/07 11:06:34;;;;;;;8.13;3.88;;;;;;;;;;5021684;28;20029;-80
2024/01/07 11:09:00;;;;;;;20.95;6.60;;;;;;;;;;5023027;28;20040;-79
2024/01/07 11:11:28;;;;;;;9.38;4.30;;;;;;;;;;5025995;28;20064;-80
2024/01/07 11:13:54;;;;;;;12.15;5.82;;;;;;;;;;5024257;28;20801;-78
2024/01/07 11:16:38;;;;;;;7.95;4.10;;;;;;;;;;5022002;28;20578;-81
2024/01/07 11:19:05;;;;;;;6.03;3.33;;;;;;;;;;5023337;28;20127;-81
2024/01/07 11:21:31;;;;;;;6.18;3.47;;;;;;;;;;5027338;28;20025;-80
2024/01/07 11:23:57;;;;;;;7.07;4.03;;;;;;;;;;5017196;28;20029;-79
2024/01/07 11:26:23;;;;;;;10.52;4.45;;;;;;;;;;5026583;28;20492;-81
2024/01/07 11:28:56;;;;;;;7.05;4.47;;;;;;;;;;5021269;28;20029;-80
2024/01/07 11:31:42;;;;;;;9.90;4.55;;;;;;;;;;5057478;28;20029;-81
2024/01/07 11:34:08;;;;;;;5.28;3.45;;;;;;;;;;5024559;28;20033;-79
2024/01/07 11:36:38;;;;;;;9.60;3.90;;;;;;;;;;5058164;28;20361;-79
2024/01/07 11:39:08;;;;;;;10.15;4.30;;;;;;;;;;5016882;28;20396;-79
2024/01/07 11:41:34;;;;;;;9.45;5.15;;;;;;;;;;5023995;28;22551;-79
2024/01/07 11:44:00;;;;;;;8.02;4.10;;;;;;;;;;5020953;28;20042;-79
2024/01/07 11:46:28;;;;;;;6.43;3.50;;;;;;;;;;5022774;28;20021;-79
2024/01/07 11:49:01;;;;;;;9.02;3.65;;;;;;;;;;5013367;28;20507;-79
2024/01/07 11:51:28;;;;;;;7.60;4.13;;;;;;;;;;5036979;28;20325;-79
2024/01/07 11:53:54;;;;;;;7.45;4.03;;;;;;;;;;5021353;28;20033;-79
2024/01/07 11:56:21;;;;;;;7.55;4.90;;;;;;;;;;5027351;28;20116;-79
2024/01/07 11:58:47;;;;;;;7.28;3.63;;;;;;;;;;5018750;28;20178;-79
2024/01/07 12:01:15;;;;;;;8.75;3.75;;;3.10;99.90;;;;;;5024536;28;20029;-81
2024/01/07 12:03:43;;;;;;;5.95;3.55;;;;;;;;;;5020627;28;20024;-79
2024/01/07 12:06:13;;;;;;;9.93;5.32;;;;;;;;;;5021339;28;20030;-79
2024/01/07 12:08:39;;;;;;;10.27;5.20;;;;;;;;;;5015484;28;20121;-81
2024/01/07 12:11:05;;;;;;;12.30;5.07;;;;;;;;;;5021260;28;20041;-80
2024/01/07 12:13:33;;;;;;;6.30;3.95;;;;;;;;;;5020368;28;20029;-78
2024/01/07 12:15:59;;;;;;;9.05;4.28;;;;;;;;;;5019830;28;20017;-79
2024/01/07 12:18:26;;;;;;;8.20;3.75;;;;;;;;;;5019343;28;20037;-81
2024/01/07 12:20:58;;;;;;;5.95;3.47;;;;;;;;;;5022837;28;20026;-79
2024/01/07 12:23:25;;;;;;;8.50;3.92;;;;;;;;;;5026749;28;20041;-77
2024/01/07 12:25:51;;;;;;;12.15;5.18;;;;;;;;;;5030858;28;20024;-78
2024/01/07 12:28:21;;;;;;;11.60;5.47;;;;;;;;;;5029878;28;20103;-80
2024/01/07 12:30:50;;;;;;;12.02;5.35;;;;;;;;;;5025472;28;20026;-79
2024/01/07 12:33:18;;;;;;;7.63;4.60;;;;;;;;;;5046422;28;20029;-80
2024/01/07 12:35:44;;;;;;;13.68;4.88;;;;;;;;;;5026722;28;20029;-80
2024/01/07 12:38:10;;;;;;;9.40;3.92;;;;;;;;;;5053413;28;20030;-80
2024/01/07 12:40:36;;;;;;;11.65;5.45;;;;;;;;;;5023067;28;20122;-79
2024/01/07 12:43:02;;;;;;;13.55;6.15;;;;;;;;;;5021124;28;20102;-76
2024/01/07 12:45:28;;;;;;;13.10;5.55;;;;;;;;;;5019883;28;20491;-81
2024/01/07 12:47:58;;;;;;;13.10;6.10;;;;;;;;;;5029630;28;20055;-80
2024/01/07 12:50:27;;;;;;;12.95;6.13;;;;;;;;;;5027088;28;20621;-79
2024/01/07 12:52:53;;;;;;;8.07;4.43;;;;;;;;;;5052864;28;20542;-79
2024/01/07 12:55:19;;;;;;;15.90;6.28;;;;;;;;;;5019760;28;20029;-82
2024/01/07 12:57:45;;;;;;;10.85;4.63;;;;;;;;;;5025464;28;20033;-79
2024/01/07 13:00:11;;;;;;;11.63;4.57;;;;;;;;;;5025672;28;20570;-80
2024/01/07 13:02:38;;;;;;;7.53;3.72;;;;;;;;;;5026389;28;20029;-80
2024/01/07 13:05:05;;;;;;;7.20;3.67;;;;;;;;;;5027743;28;20030;-79
2024/01/07 13:07:31;;;;;;;12.45;5.88;;;;;;;;;;5023068;28;20060;-81
2024/01/07 13:09:57;;;;;;;7.55;3.70;;;;;;;;;;5025698;28;20057;-79
2024/01/07 13:12:23;;;;;;;8.10;4.10;;;;;;;;;;5049176;28;20036;-78
2024/01/07 13:14:49;;;;;;;7.90;4.45;;;;;;;;;;5031146;28;20618;-80
2024/01/07 13:17:15;;;;;;;6.78;4.07;;;;;;;;;;5028960;28;20025;-80
2024/01/07 13:19:41;;;;;;;9.30;4.22;;;;;;;;;;5030030;28;20056;-80
2024/01/07 13:22:08;;;;;;;8.57;3.83;;;;;;;;;;5024305;28;20029;-80
2024/01/07 13:24:34;;;;;;;11.75;4.88;;;;;;;;;;5028479;28;20381;-80
2024/01/07 13:27:00;;;;;;;6.20;3.95;;;;;;;;;;5030801;28;20132;-80
2024/01/07 13:29:25;;;;;;;5.93;3.85;;;;;;;;;;5057097;28;20044;-79
2024/01/07 13:31:51;;;;;;;6.78;3.03;;;;;;;;;;5029464;28;20033;-79
2024/01/07 13:34:17;;;;;;;6.85;4.47;;;;;;;;;;5031077;28;20033;-80
2024/01/07 13:36:44;;;;;;;12.45;5.13;;;;;;;;;;5025337;28;20033;-80
2024/01/07 13:39:10;;;;;;;8.38;4.22;;;;;;;;;;5026644;28;20447;-78
2024/01/07 13:41:37;;;;;;;6.25;3.65;;;;;;;;;;5028471;28;20061;-79
2024/01/07 13:44:03;;;;;;;9.85;4.13;;;;;;;;;;5023191;28;20116;-80
2024/01/07 13:46:29;;;;;;;7.88;2.80;;;;;;;;;;5025740;28;20427;-80
2024/01/07 13:48:55;;;;;;;6.70;3.30;;;;;;;;;;5024910;28;20033;-80
2024/01/07 13:51:21;;;;;;;9.18;4.00;;;;;;;;;;5021753;28;20030;-79
2024/01/07 13:53:47;;;;;;;6.97;3.88;;;;;;;;;;5021447;28;20037;-78
2024/01/07 13:56:13;;;;;;;6.60;3.47;;;;;;;;;;5026547;28;20120;-80
2024/01/07 13:58:39;;;;;;;8.68;3.50;;;;;;;;;;5054885;28;20112;-81
2024/01/07 14:01:05;;;;;;;5.60;3.42;;;;;;;;;;5025190;28;20060;-76
2024/01/07 14:03:32;;;;;;;6.03;3.63;;;;;;;;;;5028552;28;20084;-76
2024/01/07 14:05:58;;;;;;;4.78;3.25;;;;;;;;;;5041120;28;20392;-79
2024/01/07 14:08:24;;;;;;;4.90;2.42;;;;;;;;;;5023951;28;20034;-77
2024/01/07 14:10:50;;;;;;;6.90;3.17;;;;;;;;;;5024566;28;20037;-77
2024/01/07 14:13:16;;;;;;;4.88;2.80;;;;;;;;;;5024987;28;20029;-79
2024/01/07 14:15:43;;;;;;;5.57;3.38;;;;;;;;;;5019661;28;20648;-79
2024/01/07 14:18:10;;;;;;;5.63;3.05;;;;;;;;;;5024585;28;20029;-77
2024/01/07 14:20:37;;;;;;;4.38;2.35;;;;;;;;;;5027422;28;20476;-81
2024/01/07 14:23:03;;;;;;;8.18;4.13;;;;;;;;;;5025784;28;20037;-80
2024/01/07 14:25:29;;;;;;;6.38;3.35;;;;;;;;;;5026355;28;20056;-77
2024/01/07 14:27:54;;;;;;;6.68;3.22;;;;;;;;;;5022313;28;20328;-79
2024/01/07 14:30:20;;;;;;;2.78;2.13;;;;;;;;;;5024205;28;20025;-79
2024/01/07 14:32:46;;;;;;;10.70;3.20;;;;;;;;;;5026685;28;20036;-77